Time;durP1;ratioP1;P1;durP2;ratioP2;P2;SDS_P1;SDS_P2;PMS_P1;PMS_P2;Temp;Humidity;BMP_temperature;BMP_pressure;BME280_temperature;BME280_humidity;BME280_pressure;Samples;Min_cycle;Max_cycle;Signal;HPM_P1;HPM_P2
2022/08/01 00:01:02;;;;;;;3.38;1.30;;;23.60;95.80;;;;;;4936337;29;20046;-46
2022/08/01 00:03:28;;;;;;;1.90;1.40;;;23.70;96.20;;;;;;4936210;29;20035;-49
2022/08/01 00:05:53;;;;;;;1.25;1.15;;;23.50;96.00;;;;;;4936327;29;20062;-45
2022/08/01 00:08:19;;;;;;;2.88;1.58;;;23.50;96.10;;;;;;4936442;29;20035;-48
2022/08/01 00:10:45;;;;;;;1.40;1.30;;;23.40;96.30;;;;;;4936425;29;20030;-49
2022/08/01 00:13:10;;;;;;;4.40;1.90;;;23.40;96.50;;;;;;4935829;29;20457;-46
2022/08/01 00:15:36;;;;;;;6.40;1.33;;;23.40;96.70;;;;;;4936021;29;20070;-45
2022/08/01 00:18:01;;;;;;;4.60;1.40;;;23.40;96.70;;;;;;4936084;29;20020;-48
2022/08/01 00:20:27;;;;;;;2.45;1.70;;;23.30;96.90;;;;;;4936136;29;20032;-47
2022/08/01 00:22:52;;;;;;;1.80;1.70;;;23.30;96.90;;;;;;4934702;29;20111;-46
2022/08/01 00:25:18;;;;;;;1.17;1.17;;;23.30;97.00;;;;;;4935612;29;20032;-50
2022/08/01 00:27:43;;;;;;;1.70;1.60;;;23.30;97.20;;;;;;4936003;29;20039;-47
2022/08/01 00:30:09;;;;;;;1.48;1.38;;;23.30;97.30;;;;;;4935894;29;20062;-48
2022/08/01 00:32:35;;;;;;;1.77;1.50;;;23.30;97.40;;;;;;4935410;29;20035;-51
2022/08/01 00:35:00;;;;;;;2.38;1.30;;;23.30;97.80;;;;;;4935470;29;20040;-46
2022/08/01 00:37:26;;;;;;;1.33;1.23;;;23.30;98.00;;;;;;4935805;29;20586;-48
2022/08/01 00:39:51;;;;;;;3.47;1.20;;;23.30;98.10;;;;;;4935662;29;20043;-48
2022/08/01 00:42:17;;;;;;;2.78;1.30;;;23.30;98.00;;;;;;4935880;29;20024;-49
2022/08/01 00:44:42;;;;;;;3.47;1.35;;;23.30;97.90;;;;;;4935938;29;20374;-50
2022/08/01 00:47:08;;;;;;;2.40;1.90;;;23.30;97.90;;;;;;4935770;29;20580;-46
2022/08/01 00:49:33;;;;;;;1.40;1.30;;;23.30;98.10;;;;;;4935716;29;20028;-50
2022/08/01 00:51:59;;;;;;;3.13;1.45;;;23.10;98.40;;;;;;4935455;29;20405;-47
2022/08/01 00:54:26;;;;;;;1.58;1.48;;;23.10;98.50;;;;;;4935185;29;20042;-48
2022/08/01 00:56:52;;;;;;;4.35;1.40;;;22.90;98.60;;;;;;4935107;29;20039;-51
2022/08/01 00:59:20;;;;;;;2.13;1.40;;;22.90;98.90;;;;;;4934755;29;20058;-53
2022/08/01 01:01:46;;;;;;;2.95;1.35;;;22.80;99.00;;;;;;4935381;29;20031;-50
2022/08/01 01:04:11;;;;;;;3.28;1.52;;;22.80;99.50;;;;;;4934974;29;20023;-53
2022/08/01 01:07:00;;;;;;;3.85;1.50;;;22.80;99.90;;;;;;4935230;29;20039;-52
2022/08/01 01:10:00;;;;;;;3.92;1.45;;;22.70;99.60;;;;;;4935345;29;20356;-48
2022/08/01 01:12:36;;;;;;;3.67;1.70;;;22.60;99.90;;;;;;4935341;29;20035;-50
2022/08/01 01:15:15;;;;;;;2.53;1.50;;;22.50;99.90;;;;;;4934734;29;20036;-48
2022/08/01 01:17:45;;;;;;;2.25;1.63;;;22.40;99.90;;;;;;4935212;29;20058;-48
2022/08/01 01:20:13;;;;;;;7.25;1.52;;;22.40;99.90;;;;;;4935086;29;20032;-50
2022/08/01 01:23:27;;;;;;;1.80;1.70;;;22.40;99.90;;;;;;4934848;29;20039;-52
2022/08/01 01:26:15;;;;;;;2.58;1.85;;;22.40;99.90;;;;;;4925962;29;20035;-50
2022/08/01 01:29:19;;;;;;;2.42;1.23;;;22.20;99.90;;;;;;4934969;29;20032;-48
2022/08/01 01:31:55;;;;;;;3.10;1.50;;;22.20;99.90;;;;;;4934330;29;20111;-49
2022/08/01 01:34:23;;;;;;;3.38;1.30;;;22.10;99.90;;;;;;4934686;29;20027;-47
2022/08/01 01:36:51;;;;;;;1.40;1.30;;;22.00;99.90;;;;;;4934703;29;20086;-50
2022/08/01 01:39:18;;;;;;;1.88;1.38;;;22.00;99.90;;;;;;4934664;29;20475;-48
2022/08/01 01:41:46;;;;;;;1.45;1.35;;;22.00;99.90;;;;;;4934722;29;20083;-50
2022/08/01 01:44:13;;;;;;;1.35;1.25;;;21.90;99.90;;;;;;4934147;29;20075;-49
2022/08/01 01:46:40;;;;;;;2.88;1.30;;;21.90;99.90;;;;;;4933198;29;20066;-52
2022/08/01 01:49:09;;;;;;;5.38;1.73;;;21.80;99.90;;;;;;4934601;29;20020;-48
2022/08/01 01:51:35;;;;;;;2.95;1.10;;;21.70;99.90;;;;;;4934495;29;20028;-50
2022/08/01 01:54:02;;;;;;;3.35;1.35;;;21.70;99.90;;;;;;4934204;29;20111;-51
2022/08/01 01:56:29;;;;;;;2.30;1.42;;;21.60;99.90;;;;;;4934552;29;20051;-47
2022/08/01 01:58:59;;;;;;;2.63;1.27;;;21.60;99.90;;;;;;4934377;29;20099;-51
2022/08/01 02:01:28;;;;;;;1.35;1.23;;;21.60;99.90;;;;;;4934362;29;20083;-48
2022/08/01 02:03:55;;;;;;;1.27;1.10;;;21.50;99.90;;;;;;4935016;29;20027;-50
2022/08/01 02:06:23;;;;;;;5.20;1.40;;;21.40;99.90;;;;;;4934298;29;20015;-50
2022/08/01 02:08:49;;;;;;;1.50;1.40;;;21.40;99.90;;;;;;4934648;29;20224;-49
2022/08/01 02:11:18;;;;;;;2.13;1.20;;;21.40;99.90;;;;;;4934320;29;20086;-48
2022/08/01 02:13:52;;;;;;;1.38;1.27;;;21.30;99.90;;;;;;4934037;29;20040;-48
2022/08/01 02:16:19;;;;;;;1.38;1.17;;;21.20;99.90;;;;;;4934328;29;20140;-50
2022/08/01 02:18:45;;;;;;;1.08;1.08;;;21.20;99.90;;;;;;4934237;29;20035;-49
2022/08/01 02:21:15;;;;;;;1.90;1.00;;;21.10;99.90;;;;;;4934170;29;20090;-48
2022/08/01 02:23:43;;;;;;;5.15;1.85;;;21.10;99.90;;;;;;4933821;29;20055;-50
2022/08/01 02:26:14;;;;;;;1.38;1.13;;;21.10;99.90;;;;;;4934109;29;20028;-48
2022/08/01 02:28:49;;;;;;;1.00;1.00;;;21.10;99.90;;;;;;4934077;29;20028;-49
2022/08/01 02:31:17;;;;;;;1.10;1.05;;;21.10;99.90;;;;;;4934231;29;20031;-47
2022/08/01 02:33:48;;;;;;;4.75;1.15;;;21.20;99.90;;;;;;4933273;29;20036;-50
2022/08/01 02:36:16;;;;;;;1.65;1.25;;;21.20;99.90;;;;;;4934145;29;20397;-49
2022/08/01 02:38:44;;;;;;;2.13;1.40;;;21.30;99.90;;;;;;4934422;29;20110;-48
2022/08/01 02:41:19;;;;;;;1.23;0.85;;;21.30;99.90;;;;;;4933993;29;20023;-48
2022/08/01 02:43:47;;;;;;;;;;;21.40;99.90;;;;;;4934121;29;20051;-46
2022/08/01 02:46:19;;;;;;;1.10;1.00;;;21.40;99.90;;;;;;4933714;29;19958;-48
2022/08/01 02:48:47;;;;;;;0.90;0.90;;;21.30;99.90;;;;;;4934070;29;20024;-49
2022/08/01 02:51:15;;;;;;;1.45;1.35;;;21.30;99.90;;;;;;4934002;29;20051;-48
2022/08/01 02:53:42;;;;;;;1.10;1.00;;;21.20;99.90;;;;;;4933695;29;20492;-48
2022/08/01 02:56:10;;;;;;;1.00;1.00;;;21.20;99.90;;;;;;4933880;29;20067;-49
2022/08/01 02:58:37;;;;;;;5.82;1.10;;;21.10;99.90;;;;;;4933855;29;20043;-48
2022/08/01 03:01:05;;;;;;;3.33;1.02;;;21.10;99.90;;;;;;4933992;29;20385;-50
2022/08/01 03:03:31;;;;;;;2.05;1.35;;;21.10;99.90;;;;;;4933534;29;20020;-51
2022/08/01 03:05:58;;;;;;;2.40;1.20;;;21.20;99.90;;;;;;4933808;29;20082;-48
2022/08/01 03:08:25;;;;;;;1.02;0.98;;;21.10;99.90;;;;;;4933867;29;20032;-48
2022/08/01 03:10:52;;;;;;;4.25;1.10;;;21.10;99.90;;;;;;4933812;29;20060;-49
2022/08/01 03:13:18;;;;;;;1.50;1.20;;;21.10;99.90;;;;;;4933417;29;20118;-48
2022/08/01 03:15:45;;;;;;;2.00;1.30;;;21.00;99.90;;;;;;4933700;29;20032;-49
2022/08/01 03:18:13;;;;;;;3.17;1.05;;;21.00;99.90;;;;;;4933923;29;20027;-48
2022/08/01 03:20:41;;;;;;;1.20;1.10;;;21.00;99.90;;;;;;4933983;29;20510;-47
2022/08/01 03:23:09;;;;;;;3.05;1.10;;;21.00;99.90;;;;;;4936941;29;20038;-47
2022/08/01 03:25:39;;;;;;;4.57;1.23;;;21.00;99.90;;;;;;4936973;29;20481;-53
2022/08/01 03:28:07;;;;;;;3.55;0.90;;;20.80;99.90;;;;;;4937150;29;20559;-48
2022/08/01 03:30:36;;;;;;;1.10;1.10;;;20.80;99.90;;;;;;4937153;29;20456;-48
2022/08/01 03:33:02;;;;;;;1.73;1.20;;;20.80;99.90;;;;;;4936329;29;20028;-48
2022/08/01 03:35:45;;;;;;;2.28;1.90;;;20.80;99.90;;;;;;4936730;29;20031;-47
2022/08/01 03:38:14;;;;;;;3.50;1.25;;;20.80;99.90;;;;;;4936961;29;20035;-45
2022/08/01 03:40:46;;;;;;;3.33;1.23;;;20.90;99.90;;;;;;4935602;29;20059;-52
2022/08/01 03:43:20;;;;;;;0.85;0.85;;;20.90;99.90;;;;;;4936565;29;20320;-49
2022/08/01 03:45:50;;;;;;;1.85;1.40;;;21.00;99.90;;;;;;4936678;29;20031;-48
2022/08/01 03:48:24;;;;;;;3.22;0.90;;;21.00;99.90;;;;;;4936712;29;20102;-50
2022/08/01 03:50:51;;;;;;;1.57;1.00;;;21.00;99.90;;;;;;4936794;29;20047;-49
2022/08/01 03:53:22;;;;;;;1.30;1.20;;;20.90;99.90;;;;;;4936414;29;20031;-50
2022/08/01 03:55:49;;;;;;;1.48;1.10;;;20.70;99.90;;;;;;4936571;29;20031;-50
2022/08/01 03:58:16;;;;;;;4.05;1.25;;;20.60;99.90;;;;;;4938125;29;20112;-48
2022/08/01 04:00:42;;;;;;;2.63;1.20;;;20.60;99.90;;;;;;4938313;29;20050;-50
2022/08/01 04:03:09;;;;;;;1.48;1.23;;;20.60;99.90;;;;;;4920039;29;20054;-51
2022/08/01 04:05:35;;;;;;;1.17;1.10;;;20.60;99.90;;;;;;4936612;29;20043;-50
2022/08/01 04:08:02;;;;;;;2.08;1.15;;;20.60;99.90;;;;;;4935335;29;20047;-47
2022/08/01 04:10:29;;;;;;;1.27;0.98;;;20.60;99.90;;;;;;4935241;29;20028;-47
2022/08/01 04:12:55;;;;;;;1.33;1.15;;;20.70;99.90;;;;;;4935534;29;20035;-48
2022/08/01 04:15:20;;;;;;;2.10;1.00;;;20.80;99.90;;;;;;4935156;29;20032;-50
2022/08/01 04:17:46;;;;;;;1.98;1.30;;;20.90;99.90;;;;;;4936288;29;20453;-50
2022/08/01 04:20:13;;;;;;;1.40;1.05;;;20.80;99.90;;;;;;4936378;29;20032;-49
2022/08/01 04:22:39;;;;;;;3.88;1.40;;;20.70;99.90;;;;;;4936104;29;20027;-51
2022/08/01 04:25:12;;;;;;;1.20;1.10;;;20.60;99.90;;;;;;4935606;29;20028;-47
2022/08/01 04:27:39;;;;;;;1.42;1.30;;;20.60;99.90;;;;;;4936135;29;20401;-50
2022/08/01 04:30:06;;;;;;;1.92;0.98;;;20.50;99.90;;;;;;4935937;29;20118;-50
2022/08/01 04:32:35;;;;;;;1.42;1.17;;;20.30;99.90;;;;;;4935516;29;20043;-51
2022/08/01 04:35:06;;;;;;;1.08;0.93;;;20.30;99.90;;;;;;4935548;29;20032;-52
2022/08/01 04:37:32;;;;;;;2.50;1.17;;;20.20;99.90;;;;;;4935909;29;20119;-50
2022/08/01 04:39:59;;;;;;;2.25;1.80;;;20.30;99.90;;;;;;4935864;29;20067;-50
2022/08/01 04:42:25;;;;;;;3.10;1.20;;;20.30;99.90;;;;;;4935795;29;20401;-53
2022/08/01 04:44:50;;;;;;;2.55;1.20;;;20.40;99.90;;;;;;4935336;29;20059;-50
2022/08/01 04:47:17;;;;;;;1.63;1.27;;;20.40;99.90;;;;;;4935615;29;20059;-48
2022/08/01 04:49:43;;;;;;;1.00;1.00;;;20.40;99.90;;;;;;4936126;29;20040;-49
2022/08/01 04:52:12;;;;;;;1.35;1.25;;;20.30;99.90;;;;;;4935664;29;20020;-48
2022/08/01 04:54:38;;;;;;;1.50;1.20;;;20.40;99.90;;;;;;4935413;29;20612;-47
2022/08/01 04:57:04;;;;;;;3.63;1.10;;;20.30;99.90;;;;;;4935621;29;20040;-49
2022/08/01 04:59:40;;;;;;;4.35;1.15;;;20.40;99.90;;;;;;4935672;29;20031;-49
2022/08/01 05:02:14;;;;;;;1.35;1.27;;;20.50;99.90;;;;;;4935438;29;20102;-50
2022/08/01 05:04:41;;;;;;;3.75;1.27;;;20.40;99.90;;;;;;4935099;29;20102;-48
2022/08/01 05:07:08;;;;;;;2.58;1.13;;;20.50;99.90;;;;;;4935216;29;20067;-47
2022/08/01 05:09:35;;;;;;;3.50;1.00;;;20.50;99.90;;;;;;4935366;29;20032;-47
2022/08/01 05:12:02;;;;;;;1.58;1.40;;;20.50;99.90;;;;;;4935368;29;20031;-47
2022/08/01 05:14:31;;;;;;;1.17;1.08;;;20.50;99.90;;;;;;4934954;29;20032;-49
2022/08/01 05:16:58;;;;;;;3.30;1.20;;;20.50;99.90;;;;;;4935212;29;20019;-49
2022/08/01 05:19:24;;;;;;;3.80;1.23;;;20.60;99.90;;;;;;4935132;29;20028;-47
2022/08/01 05:21:49;;;;;;;1.30;1.20;;;20.70;99.90;;;;;;4935190;29;20042;-47
2022/08/01 05:24:15;;;;;;;1.10;1.10;;;20.80;99.90;;;;;;4934658;29;20099;-49
2022/08/01 05:26:40;;;;;;;3.50;1.17;;;20.80;99.90;;;;;;4934861;29;20039;-48
2022/08/01 05:29:06;;;;;;;5.70;1.45;;;20.90;99.90;;;;;;4935165;29;20028;-49
2022/08/01 05:31:35;;;;;;;3.58;1.20;;;21.00;99.90;;;;;;4934922;29;20059;-49
2022/08/01 05:34:02;;;;;;;1.52;1.05;;;21.00;99.90;;;;;;4934552;29;20035;-49
2022/08/01 05:36:27;;;;;;;3.88;1.42;;;21.00;99.90;;;;;;4934745;29;20032;-50
2022/08/01 05:38:53;;;;;;;5.68;1.00;;;20.90;99.90;;;;;;4934775;29;20058;-51
2022/08/01 05:41:19;;;;;;;1.63;1.15;;;21.00;99.90;;;;;;4934751;29;20043;-46
2022/08/01 05:43:44;;;;;;;1.67;1.30;;;21.00;99.90;;;;;;4933833;29;20031;-48
2022/08/01 05:46:10;;;;;;;4.15;1.30;;;21.00;99.90;;;;;;4934468;29;20035;-50
2022/08/01 05:48:35;;;;;;;1.83;1.05;;;21.10;99.90;;;;;;4934649;29;20114;-53
2022/08/01 05:51:01;;;;;;;1.92;1.13;;;21.20;99.90;;;;;;4934586;29;20028;-47
2022/08/01 05:53:26;;;;;;;2.47;1.10;;;21.20;99.90;;;;;;4934180;29;20031;-50
2022/08/01 05:55:52;;;;;;;3.78;1.17;;;21.20;99.90;;;;;;4934457;29;20023;-52
2022/08/01 05:58:17;;;;;;;1.30;1.20;;;21.30;99.90;;;;;;4934552;29;20123;-49
2022/08/01 06:00:43;;;;;;;6.72;1.40;;;21.30;99.90;;;;;;4934361;29;20027;-50
2022/08/01 06:03:08;;;;;;;3.28;1.10;;;21.30;99.90;;;;;;4934060;29;20031;-46
2022/08/01 06:05:34;;;;;;;2.30;1.20;;;21.30;99.90;;;;;;4934456;29;20027;-52
2022/08/01 06:07:59;;;;;;;3.75;1.20;;;21.40;99.90;;;;;;4934332;29;20030;-51
2022/08/01 06:10:25;;;;;;;3.25;1.33;;;21.40;99.90;;;;;;4934296;29;20020;-50
2022/08/01 06:12:50;;;;;;;2.38;1.20;;;21.50;99.90;;;;;;4934404;29;20036;-47
2022/08/01 06:15:16;;;;;;;3.90;1.58;;;21.50;99.90;;;;;;4934086;29;20039;-50
2022/08/01 06:17:41;;;;;;;1.23;1.00;;;21.60;99.90;;;;;;4934161;29;20032;-52
2022/08/01 06:20:08;;;;;;;4.18;1.20;;;21.60;99.90;;;;;;4934181;29;20413;-48
2022/08/01 06:22:33;;;;;;;5.10;1.30;;;21.70;99.90;;;;;;4934117;29;20060;-48
2022/08/01 06:24:59;;;;;;;1.63;1.20;;;21.90;99.90;;;;;;4937464;29;20063;-48
2022/08/01 06:27:27;;;;;;;4.95;1.85;;;21.90;99.90;;;;;;4935772;28;20028;-49
2022/08/01 06:29:56;;;;;;;3.28;1.42;;;22.00;99.90;;;;;;4951474;29;20530;-48
2022/08/01 06:32:23;;;;;;;2.58;1.15;;;22.00;99.90;;;;;;4953272;28;20027;-51
2022/08/01 06:34:48;;;;;;;1.70;1.60;;;22.10;99.90;;;;;;4952981;29;20066;-48
2022/08/01 06:37:14;;;;;;;1.90;1.25;;;22.10;99.90;;;;;;4941829;28;20040;-50
2022/08/01 06:39:40;;;;;;;1.38;0.95;;;22.10;99.90;;;;;;4937629;29;20403;-47
2022/08/01 06:42:05;;;;;;;4.40;1.20;;;22.10;99.90;;;;;;4938466;29;20477;-48
2022/08/01 06:44:31;;;;;;;2.85;1.27;;;22.10;99.90;;;;;;4933567;29;20030;-48
2022/08/01 06:46:58;;;;;;;1.38;1.27;;;22.20;99.90;;;;;;4937225;29;20212;-47
2022/08/01 06:49:24;;;;;;;1.40;1.05;;;22.20;99.90;;;;;;4933926;29;20019;-51
2022/08/01 06:51:49;;;;;;;1.77;1.30;;;22.30;99.90;;;;;;4934248;29;20038;-49
2022/08/01 06:54:15;;;;;;;1.63;1.35;;;22.40;99.90;;;;;;4936724;29;20032;-48
2022/08/01 06:56:41;;;;;;;2.20;1.10;;;22.40;99.90;;;;;;4955830;28;20031;-53
2022/08/01 06:59:07;;;;;;;2.17;1.27;;;22.50;99.90;;;;;;4948751;28;20122;-46
2022/08/01 07:01:32;;;;;;;6.40;1.25;;;23.00;99.90;;;;;;4937728;29;20090;-54
2022/08/01 07:03:58;;;;;;;2.40;1.00;;;24.20;99.90;;;;;;4936234;29;20028;-51
2022/08/01 07:06:24;;;;;;;0.90;0.90;;;25.30;99.90;;;;;;4937539;29;20567;-51
2022/08/01 07:08:51;;;;;;;2.90;1.10;;;26.30;98.70;;;;;;4937101;29;20028;-50
2022/08/01 07:11:16;;;;;;;4.95;0.88;;;26.80;97.60;;;;;;4937433;29;20509;-50
2022/08/01 07:13:42;;;;;;;1.27;1.15;;;27.60;95.80;;;;;;4937061;29;20024;-49
2022/08/01 07:16:07;;;;;;;2.53;1.13;;;28.00;94.90;;;;;;4937349;29;20039;-51
2022/08/01 07:18:33;;;;;;;1.23;1.05;;;28.20;94.10;;;;;;4937341;29;20483;-53
2022/08/01 07:20:58;;;;;;;1.45;0.98;;;28.40;93.50;;;;;;4937217;29;20102;-51
2022/08/01 07:23:24;;;;;;;1.77;0.98;;;28.50;93.60;;;;;;4936645;29;20039;-46
2022/08/01 07:25:52;;;;;;;4.18;1.20;;;28.10;93.50;;;;;;4937152;29;20091;-49
2022/08/01 07:28:18;;;;;;;2.33;1.20;;;27.40;94.20;;;;;;4937053;29;20049;-50
2022/08/01 07:30:44;;;;;;;1.67;1.05;;;27.10;94.70;;;;;;4935900;29;20028;-46
2022/08/01 07:33:10;;;;;;;1.33;1.13;;;26.60;94.90;;;;;;4936779;29;20387;-51
2022/08/01 07:35:38;;;;;;;1.33;1.15;;;26.10;96.00;;;;;;4936938;29;20221;-50
2022/08/01 07:38:04;;;;;;;1.33;1.10;;;25.60;97.10;;;;;;4936888;29;20083;-49
2022/08/01 07:40:29;;;;;;;4.00;1.38;;;25.30;97.60;;;;;;4936911;29;20032;-48
2022/08/01 07:42:55;;;;;;;1.50;1.10;;;25.20;97.70;;;;;;4936639;29;20509;-48
2022/08/01 07:45:21;;;;;;;1.92;1.40;;;25.00;98.10;;;;;;4936408;29;20063;-48
2022/08/01 07:47:46;;;;;;;1.92;1.58;;;24.80;98.40;;;;;;4936810;29;20038;-50
2022/08/01 07:50:12;;;;;;;2.13;1.30;;;24.60;98.80;;;;;;4936796;29;20047;-47
2022/08/01 07:52:38;;;;;;;2.10;1.50;;;24.60;99.20;;;;;;4936455;29;20053;-50
2022/08/01 07:55:04;;;;;;;3.03;1.17;;;24.60;99.20;;;;;;4936388;29;20040;-48
2022/08/01 07:57:30;;;;;;;3.13;1.30;;;24.40;99.40;;;;;;4936577;29;20078;-48
2022/08/01 07:59:55;;;;;;;4.70;1.20;;;24.20;99.80;;;;;;4936466;29;20031;-49
2022/08/01 08:02:21;;;;;;;18.27;3.78;;;24.10;99.90;;;;;;4936788;29;20036;-47
2022/08/01 08:04:46;;;;;;;2.03;1.30;;;24.00;99.90;;;;;;4937311;29;20023;-49
2022/08/01 08:07:12;;;;;;;2.92;1.40;;;24.00;99.90;;;;;;4935799;29;20024;-51
2022/08/01 08:09:37;;;;;;;1.45;1.40;;;24.10;99.90;;;;;;4936103;29;20208;-48
2022/08/01 08:12:04;;;;;;;1.40;1.30;;;24.20;99.90;;;;;;4936282;29;20035;-49
2022/08/01 08:14:29;;;;;;;2.05;1.38;;;24.20;99.90;;;;;;4935927;29;20027;-49
2022/08/01 08:16:55;;;;;;;3.65;1.52;;;24.30;99.90;;;;;;4936165;29;20102;-48
2022/08/01 08:19:20;;;;;;;1.20;1.20;;;24.40;99.90;;;;;;4936040;29;20053;-51
2022/08/01 08:21:46;;;;;;;1.40;1.30;;;24.40;99.90;;;;;;4934765;29;20119;-49
2022/08/01 08:24:20;;;;;;;2.33;1.60;;;24.40;99.90;;;;;;4935816;29;20034;-47
2022/08/01 08:26:58;;;;;;;3.10;1.30;;;24.70;99.80;;;;;;4936039;29;20115;-49
2022/08/01 08:29:26;;;;;;;1.17;1.08;;;24.70;99.40;;;;;;4936027;29;20036;-50
2022/08/01 08:31:53;;;;;;;2.20;1.23;;;24.80;99.20;;;;;;4940220;29;20024;-47
2022/08/01 08:34:19;;;;;;;2.30;1.55;;;24.80;99.00;;;;;;4947651;28;20532;-51
2022/08/01 08:36:44;;;;;;;1.40;1.27;;;24.70;99.10;;;;;;4939192;28;20027;-48
2022/08/01 08:39:10;;;;;;;4.15;1.67;;;24.70;99.30;;;;;;4934188;29;20059;-50
2022/08/01 08:41:36;;;;;;;4.03;1.20;;;24.50;99.50;;;;;;4935546;29;20075;-52
2022/08/01 08:44:03;;;;;;;2.00;1.70;;;24.30;99.90;;;;;;4940059;29;20022;-49
2022/08/01 08:46:32;;;;;;;1.90;1.67;;;24.30;99.90;;;;;;4937501;28;20070;-48
2022/08/01 08:48:58;;;;;;;1.75;1.65;;;24.30;99.90;;;;;;4941781;29;20192;-50
2022/08/01 08:51:26;;;;;;;2.08;1.60;;;24.40;99.90;;;;;;4936876;29;20035;-50
2022/08/01 08:53:54;;;;;;;1.90;1.70;;;24.40;99.90;;;;;;4935701;29;20074;-48
2022/08/01 08:56:22;;;;;;;1.77;1.52;;;24.50;99.70;;;;;;4920706;29;20460;-48
2022/08/01 08:58:48;;;;;;;1.88;1.70;;;24.50;99.90;;;;;;4949077;28;20062;-46
2022/08/01 09:01:13;;;;;;;1.42;1.30;;;24.50;99.90;;;;;;4935144;29;20453;-50
2022/08/01 09:03:40;;;;;;;2.97;1.45;;;24.50;99.90;;;;;;4935272;29;20039;-43
2022/08/01 09:06:06;;;;;;;1.77;1.67;;;24.60;99.90;;;;;;4933854;29;20091;-47
2022/08/01 09:08:32;;;;;;;2.47;1.73;;;24.80;99.80;;;;;;4934458;29;20027;-49
2022/08/01 09:10:58;;;;;;;2.25;1.88;;;24.90;99.40;;;;;;4942378;29;20083;-55
2022/08/01 09:13:23;;;;;;;3.70;1.60;;;24.80;99.60;;;;;;4946060;28;20121;-53
2022/08/01 09:15:53;;;;;;;3.58;1.73;;;24.80;99.50;;;;;;4934408;29;20071;-50
2022/08/01 09:18:36;;;;;;;4.57;2.60;;;24.90;99.20;;;;;;4932926;29;20507;-49
2022/08/01 09:21:17;;;;;;;3.47;1.48;;;25.00;99.30;;;;;;4944531;29;20036;-49
2022/08/01 09:23:45;;;;;;;2.03;1.60;;;25.00;98.90;;;;;;4934090;29;20445;-48
2022/08/01 09:26:13;;;;;;;3.10;1.40;;;25.00;99.00;;;;;;4935187;29;20364;-46
2022/08/01 09:28:39;;;;;;;3.13;1.67;;;25.00;99.00;;;;;;4935668;29;20123;-46
2022/08/01 09:31:07;;;;;;;1.95;1.73;;;25.00;99.10;;;;;;4945010;29;20545;-46
2022/08/01 09:33:54;;;;;;;3.63;1.75;;;25.10;99.00;;;;;;4942502;29;20113;-48
2022/08/01 09:36:25;;;;;;;1.70;1.60;;;25.10;98.90;;;;;;4935167;29;20063;-48
2022/08/01 09:38:52;;;;;;;2.03;1.70;;;25.30;99.00;;;;;;4937351;29;20046;-51
2022/08/01 09:41:27;;;;;;;1.60;1.50;;;25.30;98.50;;;;;;4933601;29;20038;-51
2022/08/01 09:43:53;;;;;;;1.90;1.80;;;25.40;98.60;;;;;;4933549;29;20031;-49
2022/08/01 09:46:18;;;;;;;4.05;1.80;;;25.40;98.60;;;;;;4933425;29;20044;-52
2022/08/01 09:48:56;;;;;;;1.67;1.50;;;25.50;98.40;;;;;;4934533;29;20667;-47
2022/08/01 09:51:36;;;;;;;1.27;1.27;;;25.70;98.50;;;;;;4941535;28;20031;-50
2022/08/01 09:54:05;;;;;;;34.10;28.40;;;25.80;98.00;;;;;;4914371;29;20035;-48
2022/08/01 09:56:45;;;;;;;31.30;24.23;;;26.00;97.90;;;;;;4922158;29;20012;-46
2022/08/01 09:59:11;;;;;;;2.97;2.67;;;26.10;96.90;;;;;;4939313;29;20541;-47
2022/08/01 10:01:47;;;;;;;1.52;1.42;;;26.30;96.70;;;;;;4938145;28;20038;-47
2022/08/01 10:04:18;;;;;;;1.65;1.35;;;26.20;97.10;;;;;;4933091;29;20030;-47
2022/08/01 10:06:52;;;;;;;1.92;1.60;;;26.30;97.10;;;;;;4933123;29;20023;-48
2022/08/01 10:09:35;;;;;;;1.50;1.40;;;26.20;97.00;;;;;;4940562;29;20481;-49
2022/08/01 10:12:02;;;;;;;3.17;1.88;;;26.20;97.10;;;;;;4935326;28;20032;-48
2022/08/01 10:14:29;;;;;;;1.77;1.52;;;26.00;96.80;;;;;;4933139;29;20027;-47
2022/08/01 10:16:57;;;;;;;1.92;1.83;;;26.10;97.30;;;;;;4935840;29;20048;-51
2022/08/01 10:19:25;;;;;;;3.60;2.20;;;26.20;96.60;;;;;;4933162;29;20581;-50
2022/08/01 10:21:53;;;;;;;1.75;1.65;;;26.00;96.70;;;;;;4933884;29;20114;-48
2022/08/01 10:24:23;;;;;;;3.05;1.52;;;25.80;97.30;;;;;;4938580;29;20508;-47
2022/08/01 10:26:52;;;;;;;3.65;1.60;;;25.80;97.40;;;;;;4940295;28;20036;-53
2022/08/01 10:29:22;;;;;;;2.17;1.60;;;25.70;97.40;;;;;;4945773;29;20071;-53
2022/08/01 10:31:48;;;;;;;1.60;1.52;;;25.80;97.40;;;;;;4948217;29;20500;-53
2022/08/01 10:34:18;;;;;;;1.75;1.65;;;25.80;97.10;;;;;;4938361;29;20028;-48
2022/08/01 10:36:45;;;;;;;2.45;1.92;;;25.70;97.00;;;;;;4938926;29;20468;-46
2022/08/01 10:39:11;;;;;;;3.33;3.03;;;25.80;97.20;;;;;;4937941;29;20035;-47
2022/08/01 10:41:38;;;;;;;5.18;1.63;;;25.90;97.00;;;;;;4939833;29;20039;-52
2022/08/01 10:44:05;;;;;;;1.80;1.70;;;26.10;97.10;;;;;;4947452;28;20414;-51
2022/08/01 10:46:31;;;;;;;1.85;1.70;;;26.40;97.00;;;;;;4939690;29;20119;-58
2022/08/01 10:49:04;;;;;;;2.58;1.90;;;26.70;96.30;;;;;;4947049;28;20127;-49
2022/08/01 10:51:30;;;;;;;2.55;1.80;;;26.90;95.90;;;;;;4938198;29;20020;-50
2022/08/01 10:53:57;;;;;;;15.48;13.55;;;27.10;95.30;;;;;;4936304;29;20028;-47
2022/08/01 10:56:23;;;;;;;2.55;1.85;;;27.20;95.30;;;;;;4950949;28;20090;-49
2022/08/01 10:58:54;;;;;;;5.18;1.45;;;27.30;95.30;;;;;;4952302;28;20038;-47
2022/08/01 11:01:31;;;;;;;1.50;1.40;;;27.30;94.80;;;;;;4945679;28;20115;-47
2022/08/01 11:04:00;;;;;;;1.85;1.63;;;27.30;94.30;;;;;;4940086;29;20032;-48
2022/08/01 11:06:39;;;;;;;1.23;1.23;;;27.20;94.20;;;;;;4936970;29;20121;-47
2022/08/01 11:09:20;;;;;;;2.13;1.48;;;27.10;94.10;;;;;;4953331;29;20022;-48
2022/08/01 11:12:00;;;;;;;1.95;1.80;;;27.00;94.30;;;;;;4951529;28;20486;-49
2022/08/01 11:14:25;;;;;;;2.20;1.80;;;27.00;94.50;;;;;;4936445;29;20035;-49
2022/08/01 11:16:51;;;;;;;1.70;1.60;;;27.00;94.30;;;;;;4939910;29;20038;-47
2022/08/01 11:19:16;;;;;;;2.70;1.90;;;27.00;94.80;;;;;;4944671;28;20039;-50
2022/08/01 11:22:03;;;;;;;1.30;1.30;;;27.00;94.70;;;;;;4937498;29;20407;-54
2022/08/01 11:24:56;;;;;;;1.75;1.65;;;26.90;94.10;;;;;;4936276;29;20046;-48
2022/08/01 11:27:32;;;;;;;3.33;1.60;;;26.80;94.40;;;;;;4937089;29;20023;-51
2022/08/01 11:30:09;;;;;;;1.60;1.50;;;26.80;94.70;;;;;;4937061;29;20028;-52
2022/08/01 11:32:48;;;;;;;2.15;1.92;;;26.90;94.70;;;;;;4936969;29;20028;-49
2022/08/01 11:35:14;;;;;;;1.60;1.50;;;26.90;94.20;;;;;;4936298;29;20481;-46
2022/08/01 11:37:40;;;;;;;1.80;1.70;;;26.80;94.60;;;;;;4936079;29;20040;-48
2022/08/01 11:40:18;;;;;;;2.92;1.65;;;26.80;94.50;;;;;;4936124;29;20038;-46
2022/08/01 11:42:43;;;;;;;2.05;1.33;;;26.80;94.30;;;;;;4951211;28;20493;-48
2022/08/01 11:45:09;;;;;;;1.73;1.63;;;26.80;94.20;;;;;;4949752;28;20074;-47
2022/08/01 11:47:51;;;;;;;1.95;1.20;;;26.80;94.40;;;;;;4937214;28;20038;-47
2022/08/01 11:50:29;;;;;;;1.20;1.20;;;26.90;94.00;;;;;;4936192;29;20023;-47
2022/08/01 11:53:03;;;;;;;1.45;1.45;;;26.90;93.30;;;;;;4936449;29;20118;-46
2022/08/01 11:55:29;;;;;;;2.45;1.35;;;26.90;93.50;;;;;;4935889;29;20027;-48
2022/08/01 11:58:04;;;;;;;3.78;1.38;;;26.90;93.50;;;;;;4936588;29;20043;-48
2022/08/01 12:00:30;;;;;;;1.67;1.35;;;27.00;93.60;;;;;;4936159;29;20065;-47
2022/08/01 12:03:01;;;;;;;1.83;1.70;;;26.90;93.10;;;;;;4936409;29;20044;-50
2022/08/01 12:05:31;;;;;;;5.63;1.70;;;26.80;92.80;;;;;;4936409;29;20034;-47
2022/08/01 12:07:57;;;;;;;1.83;1.30;;;26.70;92.90;;;;;;4936459;29;20024;-47
2022/08/01 12:10:32;;;;;;;1.38;1.27;;;26.70;93.60;;;;;;4936125;29;20030;-47
2022/08/01 12:13:03;;;;;;;3.63;1.63;;;26.90;93.90;;;;;;4936207;29;20036;-46
2022/08/01 12:15:31;;;;;;;1.33;1.33;;;27.10;92.80;;;;;;4936021;29;20512;-47
2022/08/01 12:18:07;;;;;;;1.10;1.10;;;27.20;92.30;;;;;;4936252;29;20039;-48
2022/08/01 12:20:35;;;;;;;2.05;1.85;;;27.30;91.90;;;;;;4936266;29;20110;-50
2022/08/01 12:23:05;;;;;;;21.77;15.52;;;27.30;91.60;;;;;;4935854;29;20027;-47
2022/08/01 12:25:31;;;;;;;4.05;3.60;;;27.50;91.40;;;;;;4935483;29;20312;-48
2022/08/01 12:28:01;;;;;;;1.33;1.33;;;27.50;91.20;;;;;;4935842;29;20032;-51
2022/08/01 12:30:28;;;;;;;7.03;1.92;;;27.50;91.20;;;;;;4935511;29;20481;-45
2022/08/01 12:32:54;;;;;;;1.45;1.27;;;27.60;90.90;;;;;;4946281;29;20429;-50
2022/08/01 12:35:22;;;;;;;1.73;1.63;;;27.60;91.30;;;;;;4935520;29;20082;-48
2022/08/01 12:37:54;;;;;;;1.42;1.30;;;27.50;91.30;;;;;;4935244;29;20023;-46
2022/08/01 12:40:26;;;;;;;3.28;1.33;;;27.60;91.50;;;;;;4935802;29;20039;-46
2022/08/01 12:42:57;;;;;;;1.80;1.20;;;27.60;91.20;;;;;;4935515;29;20103;-48
2022/08/01 12:45:28;;;;;;;1.52;1.42;;;27.60;91.20;;;;;;4935324;29;20464;-51
2022/08/01 12:47:55;;;;;;;1.50;1.40;;;27.70;90.90;;;;;;4935315;29;20027;-50
2022/08/01 12:50:22;;;;;;;1.25;1.20;;;27.80;91.50;;;;;;4935181;29;20028;-48
2022/08/01 12:52:49;;;;;;;1.55;1.45;;;28.00;91.30;;;;;;4939358;29;20043;-48
2022/08/01 12:55:20;;;;;;;1.23;1.10;;;28.10;90.50;;;;;;4934701;29;20043;-55